PTAO2: Poteau River, Poteau, OK

                                SHEF ID:       PTAO2     Poteau River at Poteau, OK
STATION TYPE:
Regulating: Stage = 20.00, Flow = 7395

PRECIP STAGE RIV-FLOW VOLTAGE BAT-LOAD
in ft cfs volt volt
Ccp-Rev Ccp-Rev Ccp-Rev Ccp-Rev Ccp-Rev
(America/Chicago)
04/30 00:00 0.00 14.23 4213 12.90 12.44
04/30 01:00 0.00 14.14 4163 12.88 12.42
04/30 02:00 0.00 14.09 4136 12.86 12.40
04/30 03:00 0.00 14.00 4087 12.86 12.39
04/30 04:00 0.00 13.93 4049 12.83 12.36
04/30 05:00 0.00 13.82 3990 12.82 12.35
04/30 06:00 0.00 13.74 3948 12.80 12.33
04/30 07:00 0.00 13.68 3916 12.86 12.32
04/30 08:00 0.00 13.62 3884 13.93 12.76
04/30 09:00 0.00 13.53 3836 14.30 13.22
04/30 10:00 0.00 13.46 3799 13.69 13.17
04/30 11:00 0.00 13.38 3757 13.62 13.05
04/30 12:00 0.00 13.32 3726 13.59 13.01
04/30 13:00 0.00 13.26 3695 13.59 12.99
04/30 14:00 0.00 13.22 3674 13.49 12.96
04/30 15:00 0.00 13.17 3648 13.44 12.93
04/30 16:00 0.00 13.11 3617 13.50 12.90
04/30 17:00 0.00 13.07 3597 13.57 12.93
04/30 18:00 0.00 13.02 3571 13.53 12.94
04/30 19:00 0.00 12.97 3545 13.62 12.92
04/30 20:00 0.00 12.95 3535 13.29 12.88
04/30 21:00 0.00 12.90 3510 13.11 12.67
04/30 22:00 0.00 12.87 3494 13.01 12.57
04/30 23:00 0.00 12.84 3479 12.93 12.49
Data processed at Fri 01May2026 04:48 GMT

NOTICE: If you are parsing this page

Please convert to using our Data API. Starting early 2026 we will be migrating to: https://water.usace.army.mil with modern pages rendered in JavaScript. When this migration completes you will no longer be able to scrape this page! CWMSDataAPI (CDA)

Timeseries IDs (TSIDs)

TSIDs used from left to right in the data table
POTE.Precip-Inc.Total.1Hour.1Hour.Ccp-Rev
POTE.Stage.Inst.1Hour.0.Ccp-Rev
POTE.Flow.Inst.1Hour.0.Ccp-Rev
POTE.Volt-Battery.Inst.1Hour.0.Ccp-Rev
POTE.Volt-Battery Load.Inst.1Hour.0.Ccp-Rev

                            

All information presented herein is the property of the government of the United States of America and may be revised or deleted at any time without prior notice. Dissemination of this information without the expressed written consent of the Public Affairs Office, Tulsa District U.S. Army Corps of Engineers is strictly prohibited. These data are gathered electronically and, as presented, have NOT undergone any form of quality control. These data are NOT guaranteed to be valid or correct.